createdAt,value
2022-09-20T00:01:33.322Z,1.67
2022-09-20T00:04:05.710Z,1.20
2022-09-20T00:06:34.452Z,1.90
2022-09-20T00:09:03.121Z,1.33
2022-09-20T00:11:34.156Z,1.50
2022-09-20T00:14:03.677Z,1.37
2022-09-20T00:16:35.112Z,1.60
2022-09-20T00:19:06.642Z,1.10
2022-09-20T00:21:36.291Z,1.30
2022-09-20T00:24:04.225Z,1.80
2022-09-20T00:26:31.350Z,1.17
2022-09-20T00:28:58.877Z,1.20
2022-09-20T00:31:26.119Z,1.00
2022-09-20T00:34:16.728Z,1.77
2022-09-20T00:36:45.117Z,1.00
2022-09-20T00:39:14.427Z,2.00
2022-09-20T00:42:59.111Z,1.20
2022-09-20T00:45:30.481Z,1.20
2022-09-20T00:48:30.154Z,1.03
2022-09-20T00:51:06.053Z,1.20
2022-09-20T00:53:40.780Z,1.10
2022-09-20T00:56:17.880Z,1.10
2022-09-20T00:58:51.789Z,1.60
2022-09-20T01:01:19.004Z,1.30
2022-09-20T01:03:47.118Z,1.37
2022-09-20T01:06:16.908Z,1.60
2022-09-20T01:08:49.980Z,1.10
2022-09-20T01:11:17.566Z,1.40
2022-09-20T01:13:44.518Z,1.20
2022-09-20T01:16:14.388Z,1.27
2022-09-20T01:18:43.777Z,1.17
2022-09-20T01:21:11.512Z,1.00
2022-09-20T01:24:04.371Z,1.20
2022-09-20T01:26:46.876Z,1.10
2022-09-20T01:29:53.180Z,1.20
2022-09-20T01:32:31.108Z,1.27
2022-09-20T01:35:01.379Z,1.10
2022-09-20T01:38:09.533Z,1.00
2022-09-20T01:41:04.139Z,1.40
2022-09-20T01:44:06.024Z,1.30
2022-09-20T01:46:36.068Z,2.10
2022-09-20T01:49:38.473Z,1.33
2022-09-20T01:52:39.648Z,1.27
2022-09-20T01:55:27.828Z,0.97
2022-09-20T01:58:42.301Z,1.50
2022-09-20T02:01:37.586Z,1.30
2022-09-20T02:04:35.262Z,1.20
2022-09-20T02:07:20.458Z,1.40
2022-09-20T02:10:35.135Z,1.20
2022-09-20T02:13:23.706Z,1.10
2022-09-20T02:16:30.593Z,1.27
2022-09-20T02:19:28.345Z,1.27
2022-09-20T02:22:36.820Z,0.83
2022-09-20T02:25:37.908Z,1.17
2022-09-20T02:28:26.245Z,1.23
2022-09-20T02:31:15.752Z,0.90
2022-09-20T02:34:13.693Z,1.67
2022-09-20T02:37:20.651Z,1.17
2022-09-20T02:40:48.516Z,0.90
2022-09-20T02:43:46.643Z,0.90
2022-09-20T02:46:50.496Z,1.13
2022-09-20T02:49:59.200Z,1.10
2022-09-20T02:53:00.081Z,1.30
2022-09-20T02:56:04.752Z,1.27
2022-09-20T02:59:04.230Z,1.30
2022-09-20T03:01:56.292Z,1.20
2022-09-20T03:04:58.157Z,1.33
2022-09-20T03:07:43.930Z,1.43
2022-09-20T03:10:28.165Z,1.20
2022-09-20T03:13:08.349Z,0.80
2022-09-20T03:16:01.900Z,1.13
2022-09-20T03:19:02.683Z,1.50
2022-09-20T03:21:48.784Z,1.30
2022-09-20T03:25:05.614Z,1.20
2022-09-20T03:28:29.799Z,1.30
2022-09-20T03:31:22.005Z,0.80
2022-09-20T03:34:32.613Z,1.93
2022-09-20T03:37:27.165Z,1.23
2022-09-20T03:40:28.267Z,1.20
2022-09-20T03:43:25.872Z,1.60
2022-09-20T03:46:07.411Z,0.90
2022-09-20T03:49:01.975Z,1.03
2022-09-20T03:52:09.523Z,1.03
2022-09-20T03:55:03.468Z,1.17
2022-09-20T03:57:55.220Z,1.20
2022-09-20T04:00:45.541Z,1.07
2022-09-20T04:03:33.914Z,1.10
2022-09-20T04:06:05.268Z,1.17
2022-09-20T04:09:09.751Z,1.80
2022-09-20T04:11:53.520Z,1.40
2022-09-20T04:14:46.759Z,0.90
2022-09-20T04:17:34.763Z,1.37
2022-09-20T04:20:55.354Z,0.90
2022-09-20T04:23:41.711Z,1.20
2022-09-20T04:26:09.533Z,2.10
2022-09-20T04:29:17.316Z,1.50
2022-09-20T04:32:12.761Z,1.50
2022-09-20T04:35:41.488Z,1.57
2022-09-20T04:38:19.068Z,1.83
2022-09-20T04:41:31.992Z,2.00
2022-09-20T04:44:17.108Z,2.13
2022-09-20T04:47:28.472Z,2.47
2022-09-20T04:50:22.902Z,2.57
2022-09-20T04:53:30.576Z,1.80
2022-09-20T04:56:27.704Z,1.80
2022-09-20T04:59:08.362Z,2.03
2022-09-20T05:02:19.000Z,2.60
2022-09-20T05:05:41.487Z,2.67
2022-09-20T05:08:23.191Z,2.97
2022-09-20T05:11:19.976Z,2.57
2022-09-20T05:14:32.890Z,3.00
2022-09-20T05:17:33.514Z,2.30
2022-09-20T05:20:31.613Z,2.40
2022-09-20T05:23:24.091Z,2.10
2022-09-20T05:26:55.345Z,2.50
2022-09-20T05:29:39.842Z,2.40
2022-09-20T05:32:41.247Z,3.27
2022-09-20T05:35:41.702Z,2.00
2022-09-20T05:41:10.584Z,3.00
2022-09-20T05:43:52.724Z,2.20
2022-09-20T05:46:59.137Z,1.80
2022-09-20T05:49:47.611Z,1.80
2022-09-20T05:53:25.852Z,2.10
2022-09-20T05:56:22.882Z,1.70
2022-09-20T05:59:17.896Z,1.53
2022-09-20T06:02:21.729Z,1.80
2022-09-20T06:04:59.622Z,1.63
2022-09-20T06:08:03.904Z,1.20
2022-09-20T06:11:30.729Z,1.90
2022-09-20T06:14:47.574Z,1.87
2022-09-20T06:17:43.144Z,1.93
2022-09-20T06:20:34.273Z,1.67
2022-09-20T06:23:05.603Z,1.80
2022-09-20T06:25:41.161Z,1.60
2022-09-20T06:28:28.388Z,1.50
2022-09-20T06:30:57.187Z,1.90
2022-09-20T06:33:29.156Z,1.67
2022-09-20T06:36:49.791Z,1.60
2022-09-20T06:39:57.683Z,2.10
2022-09-20T06:42:27.269Z,1.80
2022-09-20T06:44:54.566Z,1.90
2022-09-20T06:47:23.063Z,2.10
2022-09-20T06:49:50.464Z,2.10
2022-09-20T06:52:19.856Z,1.90
2022-09-20T06:54:51.146Z,1.80
2022-09-20T06:57:35.205Z,2.13
2022-09-20T07:00:02.670Z,2.00
2022-09-20T07:02:29.587Z,2.40
2022-09-20T07:04:59.347Z,2.37
2022-09-20T07:07:26.997Z,2.60
2022-09-20T07:09:53.859Z,2.30
2022-09-20T07:12:21.389Z,2.43
2022-09-20T07:14:50.651Z,2.30
2022-09-20T07:17:17.760Z,2.97
2022-09-20T07:19:44.857Z,2.77
2022-09-20T07:22:12.844Z,2.70
2022-09-20T07:24:40.656Z,2.70
2022-09-20T07:27:07.650Z,2.90
2022-09-20T07:29:35.580Z,2.50
2022-09-20T07:32:02.840Z,2.83
2022-09-20T07:34:29.946Z,3.13
2022-09-20T07:37:00.053Z,3.17
2022-09-20T07:39:27.311Z,2.93
2022-09-20T07:41:54.220Z,2.57
2022-09-20T07:44:21.958Z,2.50
2022-09-20T07:46:55.103Z,2.40
2022-09-20T07:49:22.796Z,2.90
2022-09-20T07:51:50.437Z,2.50
2022-09-20T07:54:18.288Z,2.50
2022-09-20T07:56:46.012Z,2.90
2022-09-20T07:59:16.311Z,2.57
2022-09-20T08:01:44.018Z,2.60
2022-09-20T08:04:11.990Z,2.30
2022-09-20T08:06:41.606Z,3.10
2022-09-20T08:09:11.454Z,2.83
2022-09-20T08:11:40.088Z,2.47
2022-09-20T08:14:09.046Z,3.10
2022-09-20T08:16:48.718Z,3.13
2022-09-20T08:19:20.838Z,3.10
2022-09-20T08:21:49.950Z,3.07
2022-09-20T08:24:17.498Z,2.53
2022-09-20T08:26:45.066Z,2.60
2022-09-20T08:29:12.525Z,3.30
2022-09-20T08:31:42.595Z,2.50
2022-09-20T08:34:12.695Z,2.53
2022-09-20T08:36:46.382Z,2.50
2022-09-20T08:42:21.823Z,2.50
2022-09-20T08:44:58.968Z,3.23
2022-09-20T08:47:31.302Z,2.80
2022-09-20T08:50:08.625Z,2.80
2022-09-20T08:52:39.879Z,2.43
2022-09-20T08:55:20.092Z,2.80
2022-09-20T08:57:54.293Z,2.70
2022-09-20T09:00:26.333Z,2.67
2022-09-20T09:02:57.916Z,2.40
2022-09-20T09:05:48.397Z,2.57
2022-09-20T09:08:20.014Z,2.97
2022-09-20T09:11:09.490Z,2.20
2022-09-20T09:14:32.397Z,2.43
2022-09-20T09:17:00.984Z,2.50
2022-09-20T09:19:44.044Z,2.30
2022-09-20T09:22:17.377Z,2.30
2022-09-20T09:24:44.331Z,1.93
2022-09-20T09:27:19.489Z,1.90
2022-09-20T09:29:55.981Z,1.83
2022-09-20T09:32:33.076Z,2.70
2022-09-20T09:35:32.239Z,1.93
2022-09-20T09:38:02.027Z,1.33
2022-09-20T09:40:32.372Z,1.90
2022-09-20T09:43:02.711Z,1.70
2022-09-20T09:45:39.309Z,2.00
2022-09-20T09:48:25.093Z,2.00
2022-09-20T09:51:18.385Z,2.10
2022-09-20T09:53:49.051Z,2.47
2022-09-20T09:57:05.356Z,2.03
2022-09-20T09:59:51.348Z,2.37
2022-09-20T10:02:58.451Z,2.03
2022-09-20T10:05:57.895Z,1.90
2022-09-20T10:09:09.265Z,1.47
2022-09-20T10:12:35.529Z,2.30
2022-09-20T10:15:21.898Z,1.90
2022-09-20T10:18:18.424Z,2.10
2022-09-20T10:21:19.356Z,1.77
2022-09-20T10:24:05.198Z,1.93
2022-09-20T10:26:54.833Z,1.93
2022-09-20T10:30:04.091Z,1.50
2022-09-20T10:32:50.367Z,1.20
2022-09-20T10:35:35.215Z,1.10
2022-09-20T10:38:08.334Z,1.50
2022-09-20T10:41:20.994Z,1.10
2022-09-20T10:44:04.244Z,1.20
2022-09-20T10:46:53.974Z,0.90
2022-09-20T10:49:51.547Z,1.00
2022-09-20T10:52:51.059Z,1.20
2022-09-20T10:56:15.838Z,0.97
2022-09-20T10:58:58.045Z,0.77
2022-09-20T11:01:44.391Z,0.83
2022-09-20T11:05:00.620Z,0.80
2022-09-20T11:07:58.944Z,0.90
2022-09-20T11:10:52.739Z,0.70
2022-09-20T11:13:55.953Z,0.70
2022-09-20T11:16:29.496Z,1.37
2022-09-20T11:19:23.574Z,0.97
2022-09-20T11:22:09.186Z,0.50
2022-09-20T11:24:56.028Z,0.80
2022-09-20T11:27:42.460Z,0.50
2022-09-20T11:30:19.171Z,0.60
2022-09-20T11:33:18.227Z,0.60
2022-09-20T11:36:00.269Z,0.73
2022-09-20T11:38:41.028Z,0.97
2022-09-20T11:41:23.144Z,0.60
2022-09-20T11:43:52.869Z,0.83
2022-09-20T11:46:52.925Z,0.80
2022-09-20T11:49:41.142Z,0.77
2022-09-20T11:52:35.448Z,0.60
2022-09-20T11:55:33.295Z,0.40
2022-09-20T11:58:04.643Z,0.50
2022-09-20T12:00:35.888Z,0.60
2022-09-20T12:03:07.839Z,0.50
2022-09-20T12:05:41.737Z,0.60
2022-09-20T12:08:24.580Z,0.60
2022-09-20T12:11:00.650Z,0.50
2022-09-20T12:13:28.374Z,0.47
2022-09-20T12:16:40.008Z,0.90
2022-09-20T12:19:14.656Z,0.53
2022-09-20T12:21:59.940Z,0.63
2022-09-20T12:24:33.939Z,1.27
2022-09-20T12:27:22.204Z,0.53
2022-09-20T12:30:16.953Z,0.77
2022-09-20T12:32:48.617Z,0.40
2022-09-20T12:35:39.152Z,0.50
2022-09-20T12:38:21.313Z,0.40
2022-09-20T12:41:14.372Z,0.70
2022-09-20T12:43:58.808Z,0.77
2022-09-20T12:46:58.332Z,0.60
2022-09-20T12:50:04.759Z,0.80
2022-09-20T12:52:59.050Z,1.00
2022-09-20T12:55:46.270Z,0.50
2022-09-20T12:58:15.791Z,0.40
2022-09-20T13:00:59.354Z,0.67
2022-09-20T13:03:36.567Z,0.70
2022-09-20T13:06:06.523Z,0.40
2022-09-20T13:08:49.135Z,0.60
2022-09-20T13:11:39.875Z,0.67
2022-09-20T13:14:11.036Z,0.63
2022-09-20T13:16:58.954Z,0.50
2022-09-20T13:19:47.122Z,0.57
2022-09-20T13:22:32.967Z,0.73
2022-09-20T13:25:04.673Z,0.57
2022-09-20T13:27:40.355Z,0.70
2022-09-20T13:30:26.933Z,0.60
2022-09-20T13:32:55.051Z,0.40
2022-09-20T13:35:25.504Z,0.60
2022-09-20T13:38:02.088Z,0.50
2022-09-20T13:40:42.279Z,0.70
2022-09-20T13:43:56.511Z,0.50
2022-09-20T13:46:31.087Z,0.60
2022-09-20T13:49:24.800Z,0.53
2022-09-20T13:51:52.284Z,0.70
2022-09-20T13:54:31.392Z,0.50
2022-09-20T13:57:07.071Z,0.80
2022-09-20T13:59:43.013Z,0.50
2022-09-20T14:02:23.670Z,0.60
2022-09-20T14:04:54.648Z,0.50
2022-09-20T14:07:26.023Z,0.60
2022-09-20T14:09:54.136Z,0.60
2022-09-20T14:12:23.807Z,0.40
2022-09-20T14:14:52.094Z,0.67
2022-09-20T14:17:24.263Z,0.70
2022-09-20T14:19:54.780Z,0.57
2022-09-20T14:22:27.655Z,0.70
2022-09-20T14:25:12.512Z,0.63
2022-09-20T14:27:39.651Z,0.50
2022-09-20T14:30:27.594Z,0.77
2022-09-20T14:32:56.932Z,0.80
2022-09-20T14:35:23.858Z,1.57
2022-09-20T14:38:00.733Z,0.77
2022-09-20T14:40:41.639Z,0.60
2022-09-20T14:43:39.849Z,0.97
2022-09-20T14:46:35.488Z,0.70
2022-09-20T14:49:26.587Z,0.67
2022-09-20T14:51:54.983Z,1.23
2022-09-20T14:54:26.933Z,0.70
2022-09-20T14:56:57.913Z,0.60
2022-09-20T14:59:36.435Z,0.60
2022-09-20T15:02:14.424Z,0.63
2022-09-20T15:04:51.748Z,0.50
2022-09-20T15:07:19.016Z,0.90
2022-09-20T15:09:45.865Z,0.90
2022-09-20T15:12:19.596Z,0.73
2022-09-20T15:14:48.247Z,0.70
2022-09-20T15:17:18.605Z,0.60
2022-09-20T15:19:49.452Z,0.70
2022-09-20T15:22:16.963Z,0.50
2022-09-20T15:24:44.325Z,0.70
2022-09-20T15:27:12.959Z,0.80
2022-09-20T15:29:40.369Z,1.60
2022-09-20T15:32:10.040Z,0.70
2022-09-20T15:34:37.217Z,0.50
2022-09-20T15:37:04.808Z,0.63
2022-09-20T15:39:33.023Z,1.00
2022-09-20T15:41:59.954Z,0.87
2022-09-20T15:44:26.904Z,0.70
2022-09-20T15:46:54.579Z,0.50
2022-09-20T15:49:22.353Z,0.60
2022-09-20T15:51:49.365Z,0.80
2022-09-20T15:54:17.916Z,0.80
2022-09-20T15:56:44.805Z,0.83
2022-09-20T15:59:13.318Z,0.83
2022-09-20T16:01:43.270Z,0.70
2022-09-20T16:04:17.267Z,0.70
2022-09-20T16:06:46.128Z,0.60
2022-09-20T16:09:13.888Z,0.83
2022-09-20T16:11:41.025Z,0.70
2022-09-20T16:14:08.179Z,0.90
2022-09-20T16:16:40.009Z,1.07
2022-09-20T16:19:18.149Z,0.67
2022-09-20T16:21:58.520Z,0.90
2022-09-20T16:24:29.684Z,0.60
2022-09-20T16:26:58.031Z,0.80
2022-09-20T16:29:25.921Z,0.80
2022-09-20T16:31:54.605Z,0.83
2022-09-20T16:34:30.700Z,0.80
2022-09-20T16:37:05.704Z,0.60
2022-09-20T16:39:33.560Z,0.40
2022-09-20T16:42:07.428Z,0.50
2022-09-20T16:44:42.030Z,0.60
2022-09-20T16:47:20.387Z,0.57
2022-09-20T16:49:48.338Z,0.70
2022-09-20T16:52:15.360Z,0.53
2022-09-20T16:54:42.452Z,0.60
2022-09-20T16:57:09.548Z,0.70
2022-09-20T16:59:36.538Z,1.07
2022-09-20T17:02:03.577Z,1.30
2022-09-20T17:04:31.684Z,0.87
2022-09-20T17:06:58.745Z,0.77
2022-09-20T17:09:26.249Z,1.53
2022-09-20T17:11:53.742Z,0.70
2022-09-20T17:14:21.701Z,0.60
2022-09-20T17:16:49.573Z,1.03
2022-09-20T17:19:21.151Z,1.10
2022-09-20T17:21:50.986Z,1.00
2022-09-20T17:24:22.615Z,0.97
2022-09-20T17:26:51.178Z,1.10
2022-09-20T17:29:20.545Z,1.57
2022-09-20T17:31:54.991Z,1.60
2022-09-20T17:34:22.849Z,1.10
2022-09-20T17:36:50.812Z,1.07
2022-09-20T17:39:18.175Z,1.00
2022-09-20T17:41:47.652Z,1.10
2022-09-20T17:44:16.123Z,1.23
2022-09-20T17:46:45.524Z,0.97
2022-09-20T17:49:19.512Z,0.90
2022-09-20T17:51:52.790Z,0.90
2022-09-20T17:54:21.170Z,1.30
2022-09-20T17:56:50.779Z,1.07
2022-09-20T17:59:19.713Z,1.50
2022-09-20T18:01:50.627Z,1.40
2022-09-20T18:04:18.420Z,1.47
2022-09-20T18:06:48.920Z,1.53
2022-09-20T18:09:22.410Z,1.87
2022-09-20T18:11:53.018Z,2.27
2022-09-20T18:14:23.584Z,1.50
2022-09-20T18:16:58.183Z,1.70
2022-09-20T18:19:32.188Z,1.83
2022-09-20T18:21:59.669Z,2.07
2022-09-20T18:24:26.828Z,2.20
2022-09-20T18:26:53.729Z,1.30
2022-09-20T18:29:20.642Z,1.40
2022-09-20T18:31:50.605Z,1.40
2022-09-20T18:34:20.724Z,1.20
2022-09-20T18:36:59.036Z,1.37
2022-09-20T18:39:29.376Z,1.10
2022-09-20T18:41:56.408Z,1.27
2022-09-20T18:44:23.709Z,1.20
2022-09-20T18:46:54.962Z,1.47
2022-09-20T18:49:22.784Z,1.10
2022-09-20T18:51:50.244Z,1.70
2022-09-20T18:54:18.068Z,1.40
2022-09-20T18:56:48.515Z,1.40
2022-09-20T18:59:25.212Z,1.40
2022-09-20T19:01:55.357Z,1.70
2022-09-20T19:04:51.810Z,2.63
2022-09-20T19:07:27.597Z,1.70
2022-09-20T19:10:46.591Z,1.60
2022-09-20T19:13:29.516Z,1.67
2022-09-20T19:16:30.565Z,1.67
2022-09-20T19:19:37.855Z,1.50
2022-09-20T19:22:24.139Z,2.30
2022-09-20T19:25:16.813Z,2.60
2022-09-20T19:27:44.112Z,2.30
2022-09-20T19:30:15.960Z,1.93
2022-09-20T19:32:45.162Z,1.97
2022-09-20T19:35:27.155Z,2.00
2022-09-20T19:38:15.382Z,1.97
2022-09-20T19:41:08.802Z,1.90
2022-09-20T19:43:59.488Z,1.60
2022-09-20T19:46:48.153Z,2.10
2022-09-20T19:49:58.719Z,1.90
2022-09-20T19:52:26.098Z,1.60
2022-09-20T19:54:53.659Z,1.57
2022-09-20T19:57:33.604Z,1.40
2022-09-20T20:00:01.157Z,1.30
2022-09-20T20:02:28.378Z,3.40
2022-09-20T20:04:55.887Z,1.43
2022-09-20T20:07:36.875Z,1.17
2022-09-20T20:10:32.466Z,1.33
2022-09-20T20:13:32.856Z,1.50
2022-09-20T20:16:10.940Z,1.67
2022-09-20T20:19:19.096Z,1.17
2022-09-20T20:22:17.719Z,2.03
2022-09-20T20:24:53.572Z,1.27
2022-09-20T20:27:21.331Z,1.60
2022-09-20T20:29:49.650Z,1.60
2022-09-20T20:32:16.790Z,1.83
2022-09-20T20:34:43.673Z,1.20
2022-09-20T20:37:10.840Z,1.30
2022-09-20T20:39:37.710Z,1.10
2022-09-20T20:42:06.220Z,1.80
2022-09-20T20:44:37.253Z,1.40
2022-09-20T20:47:06.453Z,1.60
2022-09-20T20:49:34.029Z,1.40
2022-09-20T20:52:04.933Z,1.60
2022-09-20T20:54:32.683Z,1.30
2022-09-20T20:56:59.957Z,1.23
2022-09-20T20:59:27.078Z,1.57
2022-09-20T21:01:54.081Z,1.00
2022-09-20T21:04:21.895Z,1.20
2022-09-20T21:06:50.337Z,1.13
2022-09-20T21:09:17.264Z,1.03
2022-09-20T21:11:44.607Z,1.00
2022-09-20T21:14:12.873Z,1.17
2022-09-20T21:16:43.226Z,1.40
2022-09-20T21:19:16.759Z,0.97
2022-09-20T21:21:46.138Z,1.10
2022-09-20T21:24:17.255Z,1.53
2022-09-20T21:26:46.138Z,1.23
2022-09-20T21:29:15.664Z,1.10
2022-09-20T21:31:46.682Z,1.33
2022-09-20T21:34:15.751Z,0.93
2022-09-20T21:36:44.774Z,1.17
2022-09-20T21:39:12.627Z,1.23
2022-09-20T21:41:40.240Z,1.27
2022-09-20T21:44:10.649Z,1.10
2022-09-20T21:46:40.585Z,1.30
2022-09-20T21:49:12.031Z,1.40
2022-09-20T21:51:42.177Z,1.30
2022-09-20T21:54:09.493Z,1.27
2022-09-20T21:56:38.303Z,1.40
2022-09-20T21:59:06.411Z,1.60
2022-09-20T22:01:39.989Z,1.60
2022-09-20T22:04:10.150Z,1.30
2022-09-20T22:06:44.931Z,1.57
2022-09-20T22:09:16.325Z,2.00
2022-09-20T22:11:48.759Z,1.40
2022-09-20T22:14:18.640Z,1.60
2022-09-20T22:16:47.801Z,1.30
2022-09-20T22:19:17.130Z,1.50
2022-09-20T22:21:50.919Z,1.60
2022-09-20T22:24:18.625Z,1.73
2022-09-20T22:26:51.320Z,1.80
2022-09-20T22:29:18.878Z,1.60
2022-09-20T22:31:48.995Z,1.30
2022-09-20T22:34:22.052Z,1.33
2022-09-20T22:36:49.417Z,1.70
2022-09-20T22:39:17.315Z,1.60
2022-09-20T22:41:44.891Z,1.60
2022-09-20T22:44:12.087Z,1.60
2022-09-20T22:46:39.825Z,1.57
2022-09-20T22:49:08.555Z,1.57
2022-09-20T22:51:36.235Z,1.70
2022-09-20T22:54:10.342Z,1.33
2022-09-20T22:56:39.351Z,1.17
2022-09-20T22:59:14.886Z,1.63
2022-09-20T23:01:44.871Z,1.63
2022-09-20T23:04:23.273Z,1.40
2022-09-20T23:06:56.589Z,1.40
2022-09-20T23:09:26.601Z,1.50
2022-09-20T23:11:53.710Z,1.50
2022-09-20T23:14:22.303Z,1.53
2022-09-20T23:16:49.753Z,1.30
2022-09-20T23:19:17.015Z,1.97
2022-09-20T23:21:44.861Z,1.63
2022-09-20T23:24:14.861Z,1.47
2022-09-20T23:26:43.497Z,1.90
2022-09-20T23:29:13.960Z,1.50
2022-09-20T23:31:46.113Z,1.77
2022-09-20T23:34:15.109Z,1.30
2022-09-20T23:36:43.384Z,1.73
2022-09-20T23:39:11.765Z,1.30
2022-09-20T23:41:39.474Z,1.27
2022-09-20T23:44:07.559Z,1.70
2022-09-20T23:46:34.782Z,1.13
2022-09-20T23:49:02.673Z,1.20
2022-09-20T23:51:30.719Z,1.40
2022-09-20T23:53:58.589Z,1.10
2022-09-20T23:56:26.411Z,1.67
2022-09-20T23:58:54.105Z,1.70
